Salt Lake City, Utah
Traffic Map
Current Weather Conditions
Salt Lake City, Utah
Broken Clouds
Broken Clouds
23°
Feels Like: 23°
Wind Chill: 23° Ceiling: 21000
Heat Index: 23° Visibility: 10mi
Dew Point: 15° Wind: 8mph
Humidity: 59% Direction: 260° (W)
Pressure: 29.95in Gusts: 0mph
Raw Report DataKSLC 250453Z 26007KT 10SM FEW095 SCT130 BKN210 23/15 A2995 RMK AO2 SLP080 FU SCT130 FU E-SW T02330150
Traffic Incident Summary
Active as of:
Severity:
Category:
InformationThere was an issue retrieving the traffic information for this location. Please try a different location or try again shortly.
Advertisements
Track Severe Weather on mobile